Terminal Aerodrome Forecast
Issued by NWS Kansas City/Pleasant Hill, MO

Home | Current Version | Previous Version | Text Only | Print | Product List | Glossary On
Versions: 1 2 3 4 5 6 7 8 9 10 11 12 13 14 15 16 17 18 19
000
FTUS43 KEAX 282321
TAFMCI
TAF
KMCI 282321Z 2900/2924 19011KT P6SM FEW070 SCT250
     FM290500 27008KT P6SM VCTS BKN050CB
      TEMPO 2905/2909 6SM -TSRA BKN040CB
     FM291000 36008KT P6SM SCT050 BKN150
     FM292100 35007KT P6SM SCT050 BKN080=

USA.gov is the U.S. government's official web portal to all federal, state and local government web resources and services.